createdAt,value
2018-12-15T00:01:20.812Z,3.07
2018-12-15T00:03:48.389Z,3.50
2018-12-15T00:06:15.871Z,3.63
2018-12-15T00:08:43.454Z,3.50
2018-12-15T00:11:11.090Z,3.53
2018-12-15T00:13:38.593Z,3.83
2018-12-15T00:16:08.258Z,3.80
2018-12-15T00:18:35.755Z,3.20
2018-12-15T00:21:03.359Z,3.80
2018-12-15T00:23:30.850Z,3.83
2018-12-15T00:25:58.350Z,3.80
2018-12-15T00:28:25.835Z,3.80
2018-12-15T00:30:53.337Z,3.50
2018-12-15T00:33:20.826Z,3.57
2018-12-15T00:35:48.322Z,3.50
2018-12-15T00:38:15.815Z,3.90
2018-12-15T00:40:43.298Z,3.80
2018-12-15T00:43:10.798Z,4.10
2018-12-15T00:45:38.351Z,3.60
2018-12-15T00:48:05.844Z,3.47
2018-12-15T00:50:33.328Z,3.67
2018-12-15T00:53:00.831Z,3.70
2018-12-15T00:55:28.316Z,3.50
2018-12-15T00:57:55.826Z,3.40
2018-12-15T01:00:23.314Z,3.57
2018-12-15T01:02:50.813Z,3.20
2018-12-15T01:05:18.312Z,3.10
2018-12-15T01:07:45.880Z,3.40
2018-12-15T01:10:13.451Z,3.40
2018-12-15T01:12:40.952Z,3.50
2018-12-15T01:15:08.458Z,3.47
2018-12-15T01:17:35.950Z,3.73
2018-12-15T01:20:04.999Z,3.20
2018-12-15T01:22:32.492Z,3.37
2018-12-15T01:24:59.976Z,3.40
2018-12-15T01:27:27.694Z,3.37
2018-12-15T01:29:55.195Z,3.53
2018-12-15T01:32:22.701Z,3.57
2018-12-15T01:34:50.346Z,3.53
2018-12-15T01:37:17.838Z,3.63
2018-12-15T01:39:45.335Z,4.00
2018-12-15T01:42:12.825Z,3.70
2018-12-15T01:44:40.345Z,4.03
2018-12-15T01:47:07.858Z,3.97
2018-12-15T01:49:35.370Z,4.53
2018-12-15T01:52:02.857Z,4.40
2018-12-15T01:54:30.347Z,4.47
2018-12-15T01:56:57.851Z,4.53
2018-12-15T01:59:25.542Z,4.30
2018-12-15T02:01:53.118Z,4.33
2018-12-15T02:04:20.605Z,4.30
2018-12-15T02:06:48.106Z,4.40
2018-12-15T02:09:15.637Z,4.80
2018-12-15T02:11:43.194Z,4.80
2018-12-15T02:14:10.691Z,4.50
2018-12-15T02:16:38.193Z,4.70
2018-12-15T02:19:05.694Z,4.30
2018-12-15T02:21:33.190Z,4.77
2018-12-15T02:24:00.676Z,5.10
2018-12-15T02:26:28.244Z,4.93
2018-12-15T02:28:55.735Z,4.63
2018-12-15T02:31:23.940Z,4.90
2018-12-15T02:33:51.590Z,5.20
2018-12-15T02:36:19.087Z,5.13
2018-12-15T02:38:46.643Z,5.37
2018-12-15T02:41:14.957Z,4.87
2018-12-15T02:43:42.659Z,5.43
2018-12-15T02:46:10.158Z,4.63
2018-12-15T02:48:37.670Z,4.90
2018-12-15T02:51:05.186Z,4.67
2018-12-15T02:53:32.685Z,4.67
2018-12-15T02:56:00.170Z,4.77
2018-12-15T02:58:27.691Z,4.60
2018-12-15T03:00:55.180Z,4.87
2018-12-15T03:03:22.670Z,4.70
2018-12-15T03:05:50.223Z,4.97
2018-12-15T03:08:17.707Z,5.07
2018-12-15T03:10:45.206Z,4.30
2018-12-15T03:13:12.708Z,4.53
2018-12-15T03:15:40.201Z,4.13
2018-12-15T03:18:07.696Z,4.63
2018-12-15T03:20:35.194Z,4.63
2018-12-15T03:23:02.673Z,4.23
2018-12-15T03:25:30.157Z,4.67
2018-12-15T03:27:57.652Z,4.40
2018-12-15T03:30:25.189Z,3.90
2018-12-15T03:32:52.698Z,4.30
2018-12-15T03:35:20.180Z,4.00
2018-12-15T03:37:47.670Z,4.10
2018-12-15T03:40:15.182Z,3.97
2018-12-15T03:42:42.671Z,3.80
2018-12-15T03:45:10.168Z,3.70
2018-12-15T03:47:37.664Z,3.80
2018-12-15T03:50:06.626Z,3.80
2018-12-15T03:52:34.110Z,4.17
2018-12-15T03:55:01.606Z,4.10
2018-12-15T03:57:29.127Z,4.03
2018-12-15T03:59:56.628Z,3.63
2018-12-15T04:02:24.117Z,4.57
2018-12-15T04:04:51.891Z,4.13
2018-12-15T04:07:19.389Z,4.00
2018-12-15T04:09:46.934Z,3.63
2018-12-15T04:12:14.417Z,3.83
2018-12-15T04:14:41.894Z,3.90
2018-12-15T04:17:09.377Z,4.00
2018-12-15T04:19:36.859Z,3.63
2018-12-15T04:22:18.205Z,3.83
2018-12-15T04:24:46.150Z,3.83
2018-12-15T04:27:13.650Z,4.03
2018-12-15T04:29:41.140Z,3.93
2018-12-15T04:32:08.636Z,3.73
2018-12-15T04:34:36.124Z,3.70
2018-12-15T04:37:03.657Z,3.80
2018-12-15T04:39:31.234Z,4.10
2018-12-15T04:41:58.722Z,3.50
2018-12-15T04:44:26.228Z,3.57
2018-12-15T04:46:54.005Z,3.67
2018-12-15T04:49:21.504Z,3.50
2018-12-15T04:51:48.996Z,3.53
2018-12-15T04:54:16.532Z,3.47
2018-12-15T04:56:44.033Z,3.77
2018-12-15T04:59:11.530Z,3.67
2018-12-15T05:01:39.030Z,3.50
2018-12-15T05:04:06.524Z,3.17
2018-12-15T05:06:34.021Z,3.30
2018-12-15T05:09:01.547Z,3.30
2018-12-15T05:11:29.064Z,3.13
2018-12-15T05:13:56.556Z,2.80
2018-12-15T05:16:24.046Z,3.27
2018-12-15T05:18:51.535Z,2.93
2018-12-15T05:21:19.024Z,3.37
2018-12-15T05:23:46.521Z,3.10
2018-12-15T05:26:14.348Z,3.33
2018-12-15T05:28:41.839Z,3.00
2018-12-15T05:31:09.338Z,2.67
2018-12-15T05:33:36.850Z,2.73
2018-12-15T05:36:04.344Z,2.40
2018-12-15T05:38:31.849Z,2.93
2018-12-15T05:40:59.333Z,2.30
2018-12-15T05:43:26.831Z,2.77
2018-12-15T05:45:54.330Z,2.70
2018-12-15T05:48:25.072Z,2.70
2018-12-15T05:50:51.329Z,2.63
2018-12-15T05:53:18.830Z,2.60
2018-12-15T05:55:46.306Z,2.60
2018-12-15T05:58:14.056Z,2.50
2018-12-15T06:00:41.634Z,2.40
2018-12-15T06:03:09.140Z,2.80
2018-12-15T06:05:36.708Z,2.50
2018-12-15T06:08:04.280Z,2.40
2018-12-15T06:10:31.774Z,2.73
2018-12-15T06:12:59.266Z,2.57
2018-12-15T06:15:26.766Z,2.80
2018-12-15T06:17:54.268Z,2.70
2018-12-15T06:20:21.760Z,2.23
2018-12-15T06:22:49.247Z,2.70
2018-12-15T06:25:16.748Z,2.70
2018-12-15T06:27:44.250Z,2.70
2018-12-15T06:30:11.871Z,2.77
2018-12-15T06:32:39.359Z,3.17
2018-12-15T06:35:07.090Z,3.10
2018-12-15T06:37:34.581Z,3.20
2018-12-15T06:40:02.345Z,3.23
2018-12-15T06:42:29.840Z,3.27
2018-12-15T06:44:57.456Z,3.13
2018-12-15T06:47:24.998Z,3.30
2018-12-15T06:49:52.488Z,3.63
2018-12-15T06:52:19.970Z,3.80
2018-12-15T06:54:47.463Z,4.13
2018-12-15T06:57:14.959Z,4.10
2018-12-15T06:59:42.472Z,4.10
2018-12-15T07:02:09.960Z,4.07
2018-12-15T07:04:37.464Z,4.30
2018-12-15T07:07:04.946Z,4.27
2018-12-15T07:09:32.442Z,4.30
2018-12-15T07:11:59.960Z,4.20
2018-12-15T07:14:27.464Z,4.13
2018-12-15T07:16:54.961Z,3.90
2018-12-15T07:19:22.466Z,4.23
2018-12-15T07:21:49.955Z,4.10
2018-12-15T07:24:17.624Z,4.23
2018-12-15T07:26:45.595Z,4.00
2018-12-15T07:29:13.101Z,4.07
2018-12-15T07:31:40.596Z,3.70
2018-12-15T07:34:08.084Z,3.60
2018-12-15T07:36:35.573Z,3.90
2018-12-15T07:39:04.427Z,4.00
2018-12-15T07:41:31.914Z,3.77
2018-12-15T07:43:59.417Z,3.90
2018-12-15T07:46:26.916Z,4.17
2018-12-15T07:48:54.395Z,3.90
2018-12-15T07:51:21.899Z,3.60
2018-12-15T07:53:49.391Z,3.77
2018-12-15T07:56:16.888Z,3.83
2018-12-15T07:58:44.411Z,3.67
2018-12-15T08:01:11.909Z,3.43
2018-12-15T08:03:39.397Z,3.80
2018-12-15T08:06:06.882Z,4.33
2018-12-15T08:08:34.379Z,4.43
2018-12-15T08:11:07.583Z,4.00
2018-12-15T08:13:35.126Z,4.47
2018-12-15T08:16:02.625Z,4.13
2018-12-15T08:18:30.123Z,4.07
2018-12-15T08:20:57.619Z,4.30
2018-12-15T08:23:25.136Z,4.07
2018-12-15T08:25:52.634Z,4.17
2018-12-15T08:28:20.277Z,4.03
2018-12-15T08:30:47.992Z,4.37
2018-12-15T08:33:15.517Z,4.37
2018-12-15T08:35:43.003Z,4.10
2018-12-15T08:38:10.511Z,4.13
2018-12-15T08:40:38.006Z,4.40
2018-12-15T08:43:05.511Z,4.43
2018-12-15T08:45:33.043Z,4.27
2018-12-15T08:48:00.530Z,3.90
2018-12-15T08:50:28.021Z,4.60
2018-12-15T08:52:55.552Z,4.30
2018-12-15T08:55:23.053Z,4.40
2018-12-15T08:57:50.541Z,4.33
2018-12-15T09:00:18.113Z,4.73
2018-12-15T09:02:45.619Z,4.80
2018-12-15T09:05:13.118Z,4.40
2018-12-15T09:07:40.614Z,4.47
2018-12-15T09:10:08.188Z,5.27
2018-12-15T09:12:35.688Z,5.30
2018-12-15T09:15:04.177Z,5.00
2018-12-15T09:17:31.659Z,5.13
2018-12-15T09:19:59.151Z,5.17
2018-12-15T09:22:26.658Z,4.87
2018-12-15T09:24:55.615Z,5.40
2018-12-15T09:27:23.257Z,5.27
2018-12-15T09:29:50.794Z,5.07
2018-12-15T09:32:18.372Z,4.60
2018-12-15T09:34:45.862Z,5.10
2018-12-15T09:37:13.343Z,4.90
2018-12-15T09:39:40.844Z,4.97
2018-12-15T09:42:08.339Z,4.90
2018-12-15T09:44:35.831Z,4.97
2018-12-15T09:47:03.318Z,4.40
2018-12-15T09:49:30.829Z,5.00
2018-12-15T09:51:58.315Z,5.17
2018-12-15T09:54:25.903Z,5.23
2018-12-15T09:56:53.408Z,4.93
2018-12-15T09:59:20.899Z,5.50
2018-12-15T10:01:48.406Z,5.47
2018-12-15T10:04:16.347Z,5.30
2018-12-15T10:06:43.865Z,5.60
2018-12-15T10:09:11.351Z,5.73
2018-12-15T10:11:38.904Z,5.60
2018-12-15T10:14:06.498Z,5.43
2018-12-15T10:16:34.080Z,5.57
2018-12-15T10:19:01.591Z,5.80
2018-12-15T10:21:29.109Z,5.70
2018-12-15T10:23:56.603Z,5.80
2018-12-15T10:26:24.103Z,5.60
2018-12-15T10:28:51.616Z,5.90
2018-12-15T10:31:24.766Z,5.57
2018-12-15T10:33:52.319Z,6.03
2018-12-15T10:36:19.815Z,5.67
2018-12-15T10:38:47.307Z,5.60
2018-12-15T10:41:14.803Z,5.63
2018-12-15T10:43:42.286Z,5.70
2018-12-15T10:46:09.790Z,6.03
2018-12-15T10:48:37.290Z,5.30
2018-12-15T10:51:04.782Z,5.83
2018-12-15T10:53:32.299Z,5.30
2018-12-15T10:55:59.809Z,5.10
2018-12-15T10:58:27.298Z,5.43
2018-12-15T11:00:56.840Z,5.47
2018-12-15T11:03:24.395Z,4.77
2018-12-15T11:05:51.908Z,5.07
2018-12-15T11:08:19.407Z,5.27
2018-12-15T11:10:46.897Z,5.27
2018-12-15T11:13:14.401Z,5.13
2018-12-15T11:15:41.931Z,5.10
2018-12-15T11:18:09.457Z,4.60
2018-12-15T11:20:36.971Z,4.27
2018-12-15T11:23:04.538Z,4.60
2018-12-15T11:25:32.050Z,4.87
2018-12-15T11:27:59.548Z,4.47
2018-12-15T11:30:27.051Z,4.60
2018-12-15T11:32:54.551Z,4.60
2018-12-15T11:35:22.031Z,4.40
2018-12-15T11:37:49.525Z,4.57
2018-12-15T11:40:17.015Z,4.47
2018-12-15T11:42:44.503Z,4.73
2018-12-15T11:45:11.993Z,4.40
2018-12-15T11:47:39.501Z,4.73
2018-12-15T11:50:07.140Z,5.00
2018-12-15T11:52:34.634Z,4.03
2018-12-15T11:55:02.141Z,4.63
2018-12-15T11:57:29.626Z,4.60
2018-12-15T11:59:57.208Z,4.67
2018-12-15T12:02:24.768Z,4.37
2018-12-15T12:04:52.259Z,4.50
2018-12-15T12:07:19.764Z,4.70
2018-12-15T12:09:47.254Z,4.47
2018-12-15T12:12:14.775Z,4.50
2018-12-15T12:14:42.264Z,4.87
2018-12-15T12:17:09.777Z,4.57
2018-12-15T12:19:37.269Z,4.70
2018-12-15T12:22:04.766Z,4.47
2018-12-15T12:24:32.256Z,4.60
2018-12-15T12:26:59.757Z,4.33
2018-12-15T12:29:27.267Z,4.43
2018-12-15T12:31:54.761Z,4.23
2018-12-15T12:34:22.279Z,4.73
2018-12-15T12:36:49.772Z,4.47
2018-12-15T12:39:17.264Z,4.60
2018-12-15T12:41:44.759Z,4.40
2018-12-15T12:44:12.261Z,3.93
2018-12-15T12:46:39.827Z,4.63
2018-12-15T12:49:07.327Z,4.33
2018-12-15T12:51:34.891Z,4.57
2018-12-15T12:54:02.402Z,4.40
2018-12-15T12:56:29.897Z,4.63
2018-12-15T12:58:57.399Z,4.20
2018-12-15T13:01:24.910Z,4.20
2018-12-15T13:03:52.390Z,4.30
2018-12-15T13:06:20.371Z,4.67
2018-12-15T13:08:47.876Z,4.60
2018-12-15T13:11:15.379Z,4.63
2018-12-15T13:13:42.870Z,4.50
2018-12-15T13:16:10.387Z,3.83
2018-12-15T13:18:37.890Z,4.10
2018-12-15T13:21:06.510Z,3.87
2018-12-15T13:23:34.003Z,4.47
2018-12-15T13:26:01.510Z,4.03
2018-12-15T13:28:28.992Z,4.03
2018-12-15T13:30:56.487Z,4.60
2018-12-15T13:33:35.101Z,4.70
2018-12-15T13:36:07.323Z,4.33
2018-12-15T13:38:34.822Z,4.50
2018-12-15T13:41:02.475Z,5.20
2018-12-15T13:43:29.977Z,4.50
2018-12-15T13:45:57.471Z,4.50
2018-12-15T13:50:58.958Z,4.47
2018-12-15T13:53:28.038Z,4.97
2018-12-15T13:55:55.797Z,4.73
2018-12-15T13:58:23.386Z,4.77
2018-12-15T14:00:50.874Z,4.80
2018-12-15T14:03:18.363Z,5.10
2018-12-15T14:05:45.864Z,5.77
2018-12-15T14:08:13.380Z,5.27
2018-12-15T14:10:40.875Z,5.00
2018-12-15T14:13:08.376Z,4.80
2018-12-15T14:15:35.887Z,5.30
2018-12-15T14:18:03.538Z,4.93
2018-12-15T14:20:31.039Z,5.20
2018-12-15T14:22:58.538Z,4.80
2018-12-15T14:25:26.100Z,5.10
2018-12-15T14:27:53.589Z,5.17
2018-12-15T14:30:21.692Z,5.53
2018-12-15T14:32:49.196Z,4.80
2018-12-15T14:35:16.691Z,5.27
2018-12-15T14:37:44.375Z,4.70
2018-12-15T14:40:11.961Z,5.03
2018-12-15T14:42:39.452Z,4.83
2018-12-15T14:45:07.112Z,5.00
2018-12-15T14:47:34.618Z,5.10
2018-12-15T14:50:02.208Z,5.60
2018-12-15T14:52:29.712Z,5.30
2018-12-15T14:54:57.208Z,5.90
2018-12-15T14:57:24.733Z,5.37
2018-12-15T14:59:52.308Z,5.83
2018-12-15T15:02:19.790Z,5.67
2018-12-15T15:04:47.289Z,5.53
2018-12-15T15:07:14.791Z,5.73
2018-12-15T15:09:42.307Z,5.80
2018-12-15T15:12:09.796Z,5.90
2018-12-15T15:14:37.303Z,6.20
2018-12-15T15:17:04.800Z,5.70
2018-12-15T15:19:32.468Z,5.83
2018-12-15T15:22:00.625Z,6.43
2018-12-15T15:24:28.140Z,6.00
2018-12-15T15:26:55.630Z,5.50
2018-12-15T15:29:23.114Z,5.97
2018-12-15T15:31:50.622Z,5.57
2018-12-15T15:34:18.195Z,6.00
2018-12-15T15:36:45.781Z,5.73
2018-12-15T15:39:13.289Z,5.33
2018-12-15T15:41:40.802Z,5.70
2018-12-15T15:44:08.319Z,5.73
2018-12-15T15:46:35.820Z,5.50
2018-12-15T15:49:03.330Z,5.57
2018-12-15T15:51:30.836Z,5.90
2018-12-15T15:53:58.352Z,5.70
2018-12-15T15:56:25.853Z,5.33
2018-12-15T15:58:53.356Z,5.67
2018-12-15T16:01:20.845Z,5.70
2018-12-15T16:03:48.345Z,5.20
2018-12-15T16:06:16.146Z,5.43
2018-12-15T16:08:43.647Z,6.30
2018-12-15T16:11:11.163Z,5.40
2018-12-15T16:13:38.670Z,4.90
2018-12-15T16:16:14.076Z,5.73
2018-12-15T16:18:41.570Z,6.07
2018-12-15T16:21:09.116Z,5.83
2018-12-15T16:23:36.635Z,5.70
2018-12-15T16:26:04.124Z,5.77
2018-12-15T16:28:31.630Z,5.93
2018-12-15T16:30:59.141Z,5.80
2018-12-15T16:33:26.693Z,6.43
2018-12-15T16:35:54.201Z,6.60
2018-12-15T16:38:22.986Z,5.97
2018-12-15T16:40:50.500Z,6.17
2018-12-15T16:43:17.990Z,6.47
2018-12-15T16:45:45.513Z,6.90
2018-12-15T16:48:13.010Z,6.50
2018-12-15T16:50:40.494Z,6.47
2018-12-15T16:53:08.003Z,6.33
2018-12-15T16:55:35.521Z,6.07
2018-12-15T16:58:03.045Z,6.10
2018-12-15T17:00:30.548Z,6.33
2018-12-15T17:02:58.058Z,6.70
2018-12-15T17:05:25.555Z,6.60
2018-12-15T17:07:53.048Z,6.53
2018-12-15T17:10:20.556Z,6.10
2018-12-15T17:12:48.094Z,6.57
2018-12-15T17:15:15.622Z,6.97
2018-12-15T17:17:43.130Z,6.50
2018-12-15T17:20:11.130Z,5.90
2018-12-15T17:22:38.643Z,5.50
2018-12-15T17:25:07.093Z,6.07
2018-12-15T17:27:34.578Z,5.87
2018-12-15T17:30:02.090Z,6.10
2018-12-15T17:32:29.611Z,5.70
2018-12-15T17:34:57.124Z,6.43
2018-12-15T17:37:24.634Z,6.23
2018-12-15T17:39:52.115Z,6.53
2018-12-15T17:42:19.638Z,6.20
2018-12-15T17:44:47.146Z,6.07
2018-12-15T17:47:14.712Z,6.07
2018-12-15T17:49:42.212Z,5.67
2018-12-15T17:52:09.722Z,6.07
2018-12-15T17:54:37.247Z,6.27
2018-12-15T17:57:04.780Z,5.90
2018-12-15T17:59:32.282Z,6.23
2018-12-15T18:01:59.772Z,6.03
2018-12-15T18:04:27.273Z,6.03
2018-12-15T18:06:54.760Z,6.20
2018-12-15T18:09:22.264Z,5.83
2018-12-15T18:11:49.755Z,5.07
2018-12-15T18:14:17.265Z,5.53
2018-12-15T18:16:44.795Z,5.57
2018-12-15T18:19:12.667Z,5.03
2018-12-15T18:21:40.173Z,4.83
2018-12-15T18:24:07.682Z,4.03
2018-12-15T18:26:35.186Z,4.40
2018-12-15T18:29:02.693Z,3.90
2018-12-15T18:31:30.232Z,3.73
2018-12-15T18:33:57.732Z,3.60
2018-12-15T18:36:25.220Z,3.23
2018-12-15T18:38:52.724Z,3.60
2018-12-15T18:41:20.252Z,3.43
2018-12-15T18:43:47.773Z,4.00
2018-12-15T18:46:15.303Z,3.73
2018-12-15T18:48:42.804Z,3.30
2018-12-15T18:51:16.173Z,3.77
2018-12-15T18:53:39.851Z,3.80
2018-12-15T18:56:07.374Z,3.90
2018-12-15T18:58:34.877Z,4.20
2018-12-15T19:01:02.376Z,4.43
2018-12-15T19:03:29.867Z,5.07
2018-12-15T19:05:58.380Z,5.10
2018-12-15T19:08:25.882Z,5.17
2018-12-15T19:10:53.448Z,4.90
2018-12-15T19:13:20.960Z,5.23
2018-12-15T19:15:48.477Z,5.17
2018-12-15T19:18:15.971Z,5.67
2018-12-15T19:20:43.463Z,5.70
2018-12-15T19:23:10.985Z,5.90
2018-12-15T19:25:38.483Z,5.80
2018-12-15T19:28:05.992Z,5.97
2018-12-15T19:30:33.503Z,6.13
2018-12-15T19:33:00.993Z,6.13
2018-12-15T19:35:28.487Z,5.87
2018-12-15T19:37:55.981Z,5.93
2018-12-15T19:40:24.424Z,5.57
2018-12-15T19:42:51.959Z,5.80
2018-12-15T19:45:19.451Z,5.83
2018-12-15T19:47:46.956Z,6.30
2018-12-15T19:50:14.449Z,6.37
2018-12-15T19:52:41.952Z,6.57
2018-12-15T19:55:09.446Z,6.97
2018-12-15T19:57:36.936Z,6.37
2018-12-15T20:00:06.605Z,6.10
2018-12-15T20:02:34.111Z,6.47
2018-12-15T20:05:01.613Z,6.43
2018-12-15T20:07:29.113Z,6.53
2018-12-15T20:09:56.620Z,6.80
2018-12-15T20:12:24.677Z,6.70
2018-12-15T20:14:52.263Z,6.70
2018-12-15T20:17:19.756Z,6.60
2018-12-15T20:19:47.248Z,6.33
2018-12-15T20:22:14.736Z,6.67
2018-12-15T20:24:42.231Z,6.80
2018-12-15T20:27:09.731Z,6.37
2018-12-15T20:29:37.228Z,6.70
2018-12-15T20:32:04.736Z,7.40
2018-12-15T20:34:32.232Z,6.93
2018-12-15T20:36:59.737Z,6.97
2018-12-15T20:39:27.258Z,6.63
2018-12-15T20:41:54.751Z,6.73
2018-12-15T20:44:22.235Z,6.13
2018-12-15T20:46:49.740Z,6.23
2018-12-15T20:49:17.233Z,6.90
2018-12-15T20:51:45.621Z,6.47
2018-12-15T20:54:17.554Z,6.30
2018-12-15T20:56:45.051Z,6.53
2018-12-15T20:59:12.543Z,7.40
2018-12-15T21:01:40.042Z,6.90
2018-12-15T21:04:07.545Z,7.60
2018-12-15T21:06:35.043Z,7.10
2018-12-15T21:09:02.716Z,7.33
2018-12-15T21:11:30.218Z,7.23
2018-12-15T21:13:57.711Z,7.80
2018-12-15T21:16:25.622Z,7.27
2018-12-15T21:18:53.120Z,7.70
2018-12-15T21:21:20.619Z,7.23
2018-12-15T21:23:48.115Z,7.37
2018-12-15T21:26:15.642Z,7.60
2018-12-15T21:28:43.143Z,7.60
2018-12-15T21:31:10.634Z,7.47
2018-12-15T21:33:38.201Z,7.53
2018-12-15T21:36:05.706Z,7.67
2018-12-15T21:38:33.216Z,8.33
2018-12-15T21:41:00.716Z,7.83
2018-12-15T21:43:28.303Z,7.73
2018-12-15T21:45:55.795Z,6.87
2018-12-15T21:48:23.386Z,6.87
2018-12-15T21:50:50.883Z,6.03
2018-12-15T21:53:18.479Z,5.30
2018-12-15T21:55:45.976Z,5.10
2018-12-15T21:58:13.481Z,5.33
2018-12-15T22:00:41.004Z,5.40
2018-12-15T22:03:08.503Z,5.33
2018-12-15T22:05:35.992Z,5.50
2018-12-15T22:08:03.481Z,5.40
2018-12-15T22:10:30.972Z,5.80
2018-12-15T22:12:58.463Z,5.53
2018-12-15T22:15:26.005Z,5.80
2018-12-15T22:17:53.499Z,5.20
2018-12-15T22:20:21.368Z,5.27
2018-12-15T22:22:48.864Z,5.33
2018-12-15T22:25:16.347Z,5.07
2018-12-15T22:27:43.850Z,5.77
2018-12-15T22:30:11.334Z,5.70
2018-12-15T22:32:38.850Z,4.97
2018-12-15T22:35:06.414Z,5.53
2018-12-15T22:37:33.909Z,5.57
2018-12-15T22:40:01.412Z,5.27
2018-12-15T22:42:28.899Z,5.97
2018-12-15T22:44:56.391Z,5.60
2018-12-15T22:47:23.896Z,5.80
2018-12-15T22:49:51.391Z,6.27
2018-12-15T22:52:18.890Z,6.27
2018-12-15T22:54:46.376Z,5.73
2018-12-15T22:57:13.867Z,5.93
2018-12-15T22:59:41.376Z,6.97
2018-12-15T23:02:08.971Z,6.30
2018-12-15T23:04:36.464Z,6.67
2018-12-15T23:07:04.139Z,7.23
2018-12-15T23:09:31.699Z,6.80
2018-12-15T23:11:59.191Z,7.40
2018-12-15T23:14:26.987Z,7.37
2018-12-15T23:16:54.472Z,7.30
2018-12-15T23:19:21.990Z,7.27
2018-12-15T23:21:49.487Z,7.33
2018-12-15T23:24:17.031Z,7.40
2018-12-15T23:26:44.546Z,7.40
2018-12-15T23:29:12.039Z,7.80
2018-12-15T23:31:39.530Z,8.00
2018-12-15T23:34:07.022Z,7.97
2018-12-15T23:36:34.595Z,8.17
2018-12-15T23:39:02.121Z,7.83
2018-12-15T23:41:29.656Z,7.67
2018-12-15T23:43:57.151Z,8.37
2018-12-15T23:46:24.670Z,8.23
2018-12-15T23:48:52.171Z,8.30
2018-12-15T23:51:19.662Z,8.50
2018-12-15T23:53:47.164Z,8.13
2018-12-15T23:56:14.660Z,8.70
2018-12-15T23:58:42.161Z,8.77
